Main page
METAR-TAF:

METAR-TAF

Airports :

Kuwait International Airport

Kuwait City, Kuwait

latitude: 29-13N, longitude: 047-59E, elevation: 55 m

Current weather observation

The report was made 49 minutes ago, at 05:00 UTC
Wind 8 kt from the North/Northwest
Temperature 19°C
Humidity 78%
Pressure 1019 hPa
Visibility: 6000 m

METAR: OKBK 130500Z 33008KT 6000 NSC 19/15 Q1019 NOSIG

Time: 08:49 (05:49 UTC)

Forecast

The report was made 1 hour and 4 minutes ago, at 04:45 UTC
Forecast valid from 13 at 06 UTC to 14 at 12 UTC
Wind 10 kt from the North/Northwest
Visibility: 7000 m
Temporary
from 13 at 06 UTC to 13 at 10 UTC
Wind 3 kt from variable directions
Visibility: 3000 m
haze
Becoming
from 13 at 14 UTC to 13 at 16 UTC
Scattered clouds at a height of 4000 ft
Broken clouds at a height of 8000 ft

TAF: OKBK 130445Z 1306/1412 34010KT 7000 NSC TEMPO 1306/1310 VRB03KT 3000 HZ BECMG 1314/1316 SCT040 BKN080

Weather observations and forecasts of more than 4000 airports (METAR and TAF reports).

The available stations are represented by yellow and red dots on the map.

Hover mouse over dot to see the name of the station.

Then click to see weather observations and forecasts.

To change the map : click on the green buttons with a black cross to zoom in, on the green button with a dash to zoom out, or on the green arrows for adjacent maps.


METAR-TAF: